sensor_id;sensor_type;location;lat;lon;timestamp;P1;durP1;ratioP1;P2;durP2;ratioP2
12052;SDS011;6087;48.982;12.064;2023-05-16T00:02:19;7.40;;;6.78;;
12052;SDS011;6087;48.982;12.064;2023-05-16T00:04:46;7.63;;;6.93;;
12052;SDS011;6087;48.982;12.064;2023-05-16T00:07:13;7.50;;;6.82;;
12052;SDS011;6087;48.982;12.064;2023-05-16T00:09:40;7.88;;;7.10;;
12052;SDS011;6087;48.982;12.064;2023-05-16T00:12:22;8.60;;;7.28;;
12052;SDS011;6087;48.982;12.064;2023-05-16T00:14:49;7.22;;;6.53;;
12052;SDS011;6087;48.982;12.064;2023-05-16T00:17:18;6.80;;;6.20;;
12052;SDS011;6087;48.982;12.064;2023-05-16T00:19:46;7.70;;;6.85;;
12052;SDS011;6087;48.982;12.064;2023-05-16T00:22:13;7.57;;;6.88;;
12052;SDS011;6087;48.982;12.064;2023-05-16T00:24:42;9.00;;;7.32;;
12052;SDS011;6087;48.982;12.064;2023-05-16T00:27:09;8.02;;;7.28;;
12052;SDS011;6087;48.982;12.064;2023-05-16T00:29:36;6.72;;;5.95;;
12052;SDS011;6087;48.982;12.064;2023-05-16T00:32:03;7.47;;;6.28;;
12052;SDS011;6087;48.982;12.064;2023-05-16T00:34:33;7.65;;;6.95;;
12052;SDS011;6087;48.982;12.064;2023-05-16T00:37:01;6.82;;;6.22;;
12052;SDS011;6087;48.982;12.064;2023-05-16T00:39:27;7.43;;;6.68;;
12052;SDS011;6087;48.982;12.064;2023-05-16T00:41:54;6.68;;;6.05;;
12052;SDS011;6087;48.982;12.064;2023-05-16T00:44:22;7.75;;;7.05;;
12052;SDS011;6087;48.982;12.064;2023-05-16T00:46:48;7.63;;;6.88;;
12052;SDS011;6087;48.982;12.064;2023-05-16T00:49:15;7.28;;;6.57;;
12052;SDS011;6087;48.982;12.064;2023-05-16T00:51:44;8.10;;;7.30;;
12052;SDS011;6087;48.982;12.064;2023-05-16T00:54:11;9.48;;;6.95;;
12052;SDS011;6087;48.982;12.064;2023-05-16T00:56:38;7.18;;;6.50;;
12052;SDS011;6087;48.982;12.064;2023-05-16T00:59:05;8.50;;;6.72;;
12052;SDS011;6087;48.982;12.064;2023-05-16T01:01:32;7.30;;;6.38;;
12052;SDS011;6087;48.982;12.064;2023-05-16T01:04:00;7.78;;;6.97;;
12052;SDS011;6087;48.982;12.064;2023-05-16T01:06:28;7.80;;;6.78;;
12052;SDS011;6087;48.982;12.064;2023-05-16T01:08:56;7.57;;;6.63;;
12052;SDS011;6087;48.982;12.064;2023-05-16T01:11:25;7.22;;;6.53;;
12052;SDS011;6087;48.982;12.064;2023-05-16T01:13:59;9.88;;;7.03;;
12052;SDS011;6087;48.982;12.064;2023-05-16T01:16:38;7.90;;;7.18;;
12052;SDS011;6087;48.982;12.064;2023-05-16T01:19:12;8.13;;;7.43;;
12052;SDS011;6087;48.982;12.064;2023-05-16T01:21:47;6.95;;;6.25;;
12052;SDS011;6087;48.982;12.064;2023-05-16T01:24:26;9.07;;;6.50;;
12052;SDS011;6087;48.982;12.064;2023-05-16T01:26:59;7.28;;;6.57;;
12052;SDS011;6087;48.982;12.064;2023-05-16T01:29:29;7.20;;;6.53;;
12052;SDS011;6087;48.982;12.064;2023-05-16T01:31:56;6.20;;;5.60;;
12052;SDS011;6087;48.982;12.064;2023-05-16T01:34:23;5.93;;;5.43;;
12052;SDS011;6087;48.982;12.064;2023-05-16T01:36:51;5.68;;;5.22;;
12052;SDS011;6087;48.982;12.064;2023-05-16T01:39:32;6.60;;;5.45;;
12052;SDS011;6087;48.982;12.064;2023-05-16T01:42:04;7.53;;;5.72;;
12052;SDS011;6087;48.982;12.064;2023-05-16T01:44:36;6.25;;;5.72;;
12052;SDS011;6087;48.982;12.064;2023-05-16T01:47:09;6.47;;;5.75;;
12052;SDS011;6087;48.982;12.064;2023-05-16T01:49:39;8.43;;;5.10;;
12052;SDS011;6087;48.982;12.064;2023-05-16T01:52:10;7.60;;;4.97;;
12052;SDS011;6087;48.982;12.064;2023-05-16T01:54:41;5.65;;;5.05;;
12052;SDS011;6087;48.982;12.064;2023-05-16T01:57:12;4.97;;;4.65;;
12052;SDS011;6087;48.982;12.064;2023-05-16T01:59:42;5.70;;;5.18;;
12052;SDS011;6087;48.982;12.064;2023-05-16T02:02:10;6.05;;;5.53;;
12052;SDS011;6087;48.982;12.064;2023-05-16T02:04:37;5.88;;;5.38;;
12052;SDS011;6087;48.982;12.064;2023-05-16T02:07:03;5.30;;;4.80;;
12052;SDS011;6087;48.982;12.064;2023-05-16T02:09:30;6.05;;;5.55;;
12052;SDS011;6087;48.982;12.064;2023-05-16T02:11:58;5.72;;;5.22;;
12052;SDS011;6087;48.982;12.064;2023-05-16T02:14:27;6.43;;;5.93;;
12052;SDS011;6087;48.982;12.064;2023-05-16T02:16:54;5.68;;;5.18;;
12052;SDS011;6087;48.982;12.064;2023-05-16T02:19:21;8.20;;;5.25;;
12052;SDS011;6087;48.982;12.064;2023-05-16T02:21:48;7.28;;;6.03;;
12052;SDS011;6087;48.982;12.064;2023-05-16T02:24:15;5.95;;;5.45;;
12052;SDS011;6087;48.982;12.064;2023-05-16T02:26:42;5.78;;;5.00;;
12052;SDS011;6087;48.982;12.064;2023-05-16T02:29:09;5.75;;;5.25;;
12052;SDS011;6087;48.982;12.064;2023-05-16T02:31:37;5.50;;;4.90;;
12052;SDS011;6087;48.982;12.064;2023-05-16T02:34:04;5.63;;;5.18;;
12052;SDS011;6087;48.982;12.064;2023-05-16T02:36:31;5.40;;;5.00;;
12052;SDS011;6087;48.982;12.064;2023-05-16T02:38:59;5.40;;;5.00;;
12052;SDS011;6087;48.982;12.064;2023-05-16T02:41:29;6.82;;;6.22;;
12052;SDS011;6087;48.982;12.064;2023-05-16T02:43:57;7.72;;;6.88;;
12052;SDS011;6087;48.982;12.064;2023-05-16T02:46:25;6.72;;;6.13;;
12052;SDS011;6087;48.982;12.064;2023-05-16T02:48:59;7.57;;;6.47;;
12052;SDS011;6087;48.982;12.064;2023-05-16T02:51:27;7.28;;;6.57;;
12052;SDS011;6087;48.982;12.064;2023-05-16T02:53:59;7.18;;;6.03;;
12052;SDS011;6087;48.982;12.064;2023-05-16T02:56:26;7.55;;;6.85;;
12052;SDS011;6087;48.982;12.064;2023-05-16T02:58:54;6.68;;;5.90;;
12052;SDS011;6087;48.982;12.064;2023-05-16T03:01:21;7.78;;;7.07;;
12052;SDS011;6087;48.982;12.064;2023-05-16T03:03:48;8.13;;;7.15;;
12052;SDS011;6087;48.982;12.064;2023-05-16T03:06:16;8.15;;;6.63;;
12052;SDS011;6087;48.982;12.064;2023-05-16T03:08:43;7.00;;;6.50;;
12052;SDS011;6087;48.982;12.064;2023-05-16T03:11:10;8.75;;;7.88;;
12052;SDS011;6087;48.982;12.064;2023-05-16T03:13:36;7.78;;;6.97;;
12052;SDS011;6087;48.982;12.064;2023-05-16T03:16:04;7.97;;;7.28;;
12052;SDS011;6087;48.982;12.064;2023-05-16T03:18:31;7.93;;;7.22;;
12052;SDS011;6087;48.982;12.064;2023-05-16T03:20:58;9.30;;;7.63;;
12052;SDS011;6087;48.982;12.064;2023-05-16T03:23:27;8.00;;;7.30;;
12052;SDS011;6087;48.982;12.064;2023-05-16T03:25:54;7.75;;;7.15;;
12052;SDS011;6087;48.982;12.064;2023-05-16T03:28:21;8.00;;;7.30;;
12052;SDS011;6087;48.982;12.064;2023-05-16T03:30:48;8.73;;;7.07;;
12052;SDS011;6087;48.982;12.064;2023-05-16T03:33:15;7.57;;;6.85;;
12052;SDS011;6087;48.982;12.064;2023-05-16T03:35:43;6.65;;;6.15;;
12052;SDS011;6087;48.982;12.064;2023-05-16T03:38:09;7.38;;;6.57;;
12052;SDS011;6087;48.982;12.064;2023-05-16T03:40:38;8.35;;;7.65;;
12052;SDS011;6087;48.982;12.064;2023-05-16T03:43:05;8.43;;;6.65;;
12052;SDS011;6087;48.982;12.064;2023-05-16T03:45:32;8.13;;;7.43;;
12052;SDS011;6087;48.982;12.064;2023-05-16T03:48:02;7.75;;;7.05;;
12052;SDS011;6087;48.982;12.064;2023-05-16T03:50:29;8.48;;;7.68;;
12052;SDS011;6087;48.982;12.064;2023-05-16T03:52:56;9.07;;;8.15;;
12052;SDS011;6087;48.982;12.064;2023-05-16T03:55:23;8.65;;;7.78;;
12052;SDS011;6087;48.982;12.064;2023-05-16T03:57:51;8.82;;;8.05;;
12052;SDS011;6087;48.982;12.064;2023-05-16T04:00:18;9.18;;;7.53;;
12052;SDS011;6087;48.982;12.064;2023-05-16T04:02:45;8.65;;;7.65;;
12052;SDS011;6087;48.982;12.064;2023-05-16T04:05:12;7.15;;;6.55;;
12052;SDS011;6087;48.982;12.064;2023-05-16T04:07:39;8.48;;;7.70;;
12052;SDS011;6087;48.982;12.064;2023-05-16T04:10:06;7.72;;;6.93;;
12052;SDS011;6087;48.982;12.064;2023-05-16T04:12:34;6.93;;;6.32;;
12052;SDS011;6087;48.982;12.064;2023-05-16T04:15:02;7.47;;;6.85;;
12052;SDS011;6087;48.982;12.064;2023-05-16T04:17:31;7.05;;;6.45;;
12052;SDS011;6087;48.982;12.064;2023-05-16T04:19:58;9.05;;;7.28;;
12052;SDS011;6087;48.982;12.064;2023-05-16T04:22:25;8.82;;;7.03;;
12052;SDS011;6087;48.982;12.064;2023-05-16T04:24:52;8.95;;;7.38;;
12052;SDS011;6087;48.982;12.064;2023-05-16T04:27:19;8.70;;;7.78;;
12052;SDS011;6087;48.982;12.064;2023-05-16T04:29:45;8.68;;;7.88;;
12052;SDS011;6087;48.982;12.064;2023-05-16T04:32:14;8.95;;;8.05;;
12052;SDS011;6087;48.982;12.064;2023-05-16T04:34:41;8.20;;;7.50;;
12052;SDS011;6087;48.982;12.064;2023-05-16T04:37:09;8.38;;;7.45;;
12052;SDS011;6087;48.982;12.064;2023-05-16T04:39:36;9.18;;;7.80;;
12052;SDS011;6087;48.982;12.064;2023-05-16T04:42:03;7.63;;;6.88;;
12052;SDS011;6087;48.982;12.064;2023-05-16T04:44:31;7.30;;;6.60;;
12052;SDS011;6087;48.982;12.064;2023-05-16T04:46:58;8.18;;;7.38;;
12052;SDS011;6087;48.982;12.064;2023-05-16T04:49:27;8.30;;;7.50;;
12052;SDS011;6087;48.982;12.064;2023-05-16T04:51:53;8.35;;;7.55;;
12052;SDS011;6087;48.982;12.064;2023-05-16T04:54:20;7.70;;;7.00;;
12052;SDS011;6087;48.982;12.064;2023-05-16T04:56:47;8.15;;;7.45;;
12052;SDS011;6087;48.982;12.064;2023-05-16T04:59:17;8.75;;;7.85;;
12052;SDS011;6087;48.982;12.064;2023-05-16T05:01:48;8.27;;;7.47;;
12052;SDS011;6087;48.982;12.064;2023-05-16T05:04:18;8.77;;;7.57;;
12052;SDS011;6087;48.982;12.064;2023-05-16T05:06:49;8.32;;;7.53;;
12052;SDS011;6087;48.982;12.064;2023-05-16T05:09:15;8.32;;;7.43;;
12052;SDS011;6087;48.982;12.064;2023-05-16T05:11:42;7.90;;;7.20;;
12052;SDS011;6087;48.982;12.064;2023-05-16T05:14:09;9.23;;;7.18;;
12052;SDS011;6087;48.982;12.064;2023-05-16T05:16:36;8.65;;;7.13;;
12052;SDS011;6087;48.982;12.064;2023-05-16T05:19:03;8.20;;;7.50;;
12052;SDS011;6087;48.982;12.064;2023-05-16T05:21:30;9.32;;;7.28;;
12052;SDS011;6087;48.982;12.064;2023-05-16T05:23:59;8.50;;;7.53;;
12052;SDS011;6087;48.982;12.064;2023-05-16T05:26:25;8.38;;;7.57;;
12052;SDS011;6087;48.982;12.064;2023-05-16T05:28:53;10.90;;;8.07;;
12052;SDS011;6087;48.982;12.064;2023-05-16T05:31:19;9.35;;;8.45;;
12052;SDS011;6087;48.982;12.064;2023-05-16T05:33:46;10.70;;;8.50;;
12052;SDS011;6087;48.982;12.064;2023-05-16T05:36:13;9.32;;;8.02;;
12052;SDS011;6087;48.982;12.064;2023-05-16T05:38:41;9.30;;;8.10;;
12052;SDS011;6087;48.982;12.064;2023-05-16T05:41:09;10.45;;;8.40;;
12052;SDS011;6087;48.982;12.064;2023-05-16T05:43:36;8.60;;;7.75;;
12052;SDS011;6087;48.982;12.064;2023-05-16T05:46:03;9.98;;;9.07;;
12052;SDS011;6087;48.982;12.064;2023-05-16T05:48:31;8.68;;;7.60;;
12052;SDS011;6087;48.982;12.064;2023-05-16T05:50:58;8.73;;;7.78;;
12052;SDS011;6087;48.982;12.064;2023-05-16T05:53:25;9.15;;;8.00;;
12052;SDS011;6087;48.982;12.064;2023-05-16T05:55:52;9.43;;;8.40;;
12052;SDS011;6087;48.982;12.064;2023-05-16T05:58:20;9.40;;;8.05;;
12052;SDS011;6087;48.982;12.064;2023-05-16T06:00:47;9.45;;;8.40;;
12052;SDS011;6087;48.982;12.064;2023-05-16T06:03:14;10.68;;;8.25;;
12052;SDS011;6087;48.982;12.064;2023-05-16T06:05:41;11.25;;;8.65;;
12052;SDS011;6087;48.982;12.064;2023-05-16T06:08:08;9.32;;;8.50;;
12052;SDS011;6087;48.982;12.064;2023-05-16T06:10:35;9.88;;;8.43;;
12052;SDS011;6087;48.982;12.064;2023-05-16T06:13:02;9.68;;;7.75;;
12052;SDS011;6087;48.982;12.064;2023-05-16T06:15:30;9.90;;;8.20;;
12052;SDS011;6087;48.982;12.064;2023-05-16T06:17:57;8.48;;;7.78;;
12052;SDS011;6087;48.982;12.064;2023-05-16T06:20:24;11.48;;;8.43;;
12052;SDS011;6087;48.982;12.064;2023-05-16T06:22:51;9.15;;;8.30;;
12052;SDS011;6087;48.982;12.064;2023-05-16T06:25:18;9.63;;;8.15;;
12052;SDS011;6087;48.982;12.064;2023-05-16T06:27:45;7.97;;;7.30;;
12052;SDS011;6087;48.982;12.064;2023-05-16T06:30:12;7.97;;;7.10;;
12052;SDS011;6087;48.982;12.064;2023-05-16T06:32:41;9.35;;;8.35;;
12052;SDS011;6087;48.982;12.064;2023-05-16T06:35:08;9.48;;;8.52;;
12052;SDS011;6087;48.982;12.064;2023-05-16T06:37:35;8.90;;;8.10;;
12052;SDS011;6087;48.982;12.064;2023-05-16T06:40:02;8.85;;;7.97;;
12052;SDS011;6087;48.982;12.064;2023-05-16T06:42:29;10.45;;;9.27;;
12052;SDS011;6087;48.982;12.064;2023-05-16T06:44:56;9.07;;;8.23;;
12052;SDS011;6087;48.982;12.064;2023-05-16T06:47:23;8.95;;;7.65;;
12052;SDS011;6087;48.982;12.064;2023-05-16T06:49:51;8.10;;;7.38;;
12052;SDS011;6087;48.982;12.064;2023-05-16T06:52:18;9.32;;;8.15;;
12052;SDS011;6087;48.982;12.064;2023-05-16T06:54:46;8.55;;;7.47;;
12052;SDS011;6087;48.982;12.064;2023-05-16T06:57:12;8.90;;;8.10;;
12052;SDS011;6087;48.982;12.064;2023-05-16T06:59:41;8.88;;;7.97;;
12052;SDS011;6087;48.982;12.064;2023-05-16T07:02:08;8.88;;;8.07;;
12052;SDS011;6087;48.982;12.064;2023-05-16T07:04:35;9.23;;;8.30;;
12052;SDS011;6087;48.982;12.064;2023-05-16T07:07:04;8.93;;;8.13;;
12052;SDS011;6087;48.982;12.064;2023-05-16T07:09:33;9.23;;;8.32;;
12052;SDS011;6087;48.982;12.064;2023-05-16T07:12:00;8.93;;;8.02;;
12052;SDS011;6087;48.982;12.064;2023-05-16T07:14:26;8.63;;;7.88;;
12052;SDS011;6087;48.982;12.064;2023-05-16T07:16:53;9.38;;;8.48;;
12052;SDS011;6087;48.982;12.064;2023-05-16T07:19:20;9.23;;;8.27;;
12052;SDS011;6087;48.982;12.064;2023-05-16T07:21:47;7.75;;;6.90;;
12052;SDS011;6087;48.982;12.064;2023-05-16T07:24:15;9.02;;;8.15;;
12052;SDS011;6087;48.982;12.064;2023-05-16T07:26:42;9.40;;;7.90;;
12052;SDS011;6087;48.982;12.064;2023-05-16T07:29:09;8.70;;;7.90;;
12052;SDS011;6087;48.982;12.064;2023-05-16T07:31:36;9.50;;;8.50;;
12052;SDS011;6087;48.982;12.064;2023-05-16T07:34:03;8.40;;;7.57;;
12052;SDS011;6087;48.982;12.064;2023-05-16T07:36:30;10.30;;;8.55;;
12052;SDS011;6087;48.982;12.064;2023-05-16T07:38:57;8.43;;;7.47;;
12052;SDS011;6087;48.982;12.064;2023-05-16T07:41:25;8.70;;;7.75;;
12052;SDS011;6087;48.982;12.064;2023-05-16T07:43:52;9.30;;;8.30;;
12052;SDS011;6087;48.982;12.064;2023-05-16T07:46:19;9.13;;;7.85;;
12052;SDS011;6087;48.982;12.064;2023-05-16T07:48:46;8.68;;;7.38;;
12052;SDS011;6087;48.982;12.064;2023-05-16T07:51:13;9.18;;;8.10;;
12052;SDS011;6087;48.982;12.064;2023-05-16T07:53:40;9.52;;;8.05;;
12052;SDS011;6087;48.982;12.064;2023-05-16T07:56:07;8.43;;;7.57;;
12052;SDS011;6087;48.982;12.064;2023-05-16T07:58:35;8.07;;;7.32;;
12052;SDS011;6087;48.982;12.064;2023-05-16T08:01:03;8.27;;;7.47;;
12052;SDS011;6087;48.982;12.064;2023-05-16T08:03:30;7.78;;;7.10;;
12052;SDS011;6087;48.982;12.064;2023-05-16T08:05:57;7.95;;;7.15;;
12052;SDS011;6087;48.982;12.064;2023-05-16T08:08:24;11.35;;;8.10;;
12052;SDS011;6087;48.982;12.064;2023-05-16T08:10:50;8.75;;;7.88;;
12052;SDS011;6087;48.982;12.064;2023-05-16T08:13:17;9.20;;;8.38;;
12052;SDS011;6087;48.982;12.064;2023-05-16T08:15:46;9.10;;;7.93;;
12052;SDS011;6087;48.982;12.064;2023-05-16T08:18:13;8.43;;;7.63;;
12052;SDS011;6087;48.982;12.064;2023-05-16T08:20:40;9.90;;;7.13;;
12052;SDS011;6087;48.982;12.064;2023-05-16T08:23:07;9.77;;;8.77;;
12052;SDS011;6087;48.982;12.064;2023-05-16T08:25:34;12.63;;;8.63;;
12052;SDS011;6087;48.982;12.064;2023-05-16T08:28:01;7.60;;;6.90;;
12052;SDS011;6087;48.982;12.064;2023-05-16T08:30:36;8.30;;;7.57;;
12052;SDS011;6087;48.982;12.064;2023-05-16T08:33:04;9.85;;;7.88;;
12052;SDS011;6087;48.982;12.064;2023-05-16T08:35:31;8.32;;;6.72;;
12052;SDS011;6087;48.982;12.064;2023-05-16T08:37:59;8.68;;;7.88;;
12052;SDS011;6087;48.982;12.064;2023-05-16T08:40:31;7.70;;;7.05;;
12052;SDS011;6087;48.982;12.064;2023-05-16T08:42:58;8.88;;;7.53;;
12052;SDS011;6087;48.982;12.064;2023-05-16T08:45:25;9.07;;;8.18;;
12052;SDS011;6087;48.982;12.064;2023-05-16T08:47:53;10.38;;;7.93;;
12052;SDS011;6087;48.982;12.064;2023-05-16T08:50:22;9.10;;;8.20;;
12052;SDS011;6087;48.982;12.064;2023-05-16T08:52:50;8.25;;;7.55;;
12052;SDS011;6087;48.982;12.064;2023-05-16T08:55:18;9.07;;;7.75;;
12052;SDS011;6087;48.982;12.064;2023-05-16T08:57:47;8.68;;;7.93;;
12052;SDS011;6087;48.982;12.064;2023-05-16T09:00:16;9.50;;;8.50;;
12052;SDS011;6087;48.982;12.064;2023-05-16T09:02:43;8.80;;;8.00;;
12052;SDS011;6087;48.982;12.064;2023-05-16T09:05:11;8.15;;;7.35;;
12052;SDS011;6087;48.982;12.064;2023-05-16T09:07:41;8.80;;;7.90;;
12052;SDS011;6087;48.982;12.064;2023-05-16T09:10:09;7.90;;;7.20;;
12052;SDS011;6087;48.982;12.064;2023-05-16T09:12:37;7.80;;;7.10;;
12052;SDS011;6087;48.982;12.064;2023-05-16T09:15:05;8.68;;;7.63;;
12052;SDS011;6087;48.982;12.064;2023-05-16T09:17:34;8.95;;;8.05;;
12052;SDS011;6087;48.982;12.064;2023-05-16T09:20:07;9.20;;;8.20;;
12052;SDS011;6087;48.982;12.064;2023-05-16T09:22:35;7.57;;;6.70;;
12052;SDS011;6087;48.982;12.064;2023-05-16T09:25:04;7.57;;;6.88;;
12052;SDS011;6087;48.982;12.064;2023-05-16T09:27:32;8.75;;;7.82;;
12052;SDS011;6087;48.982;12.064;2023-05-16T09:29:59;8.07;;;7.28;;
12052;SDS011;6087;48.982;12.064;2023-05-16T09:32:25;9.23;;;7.10;;
12052;SDS011;6087;48.982;12.064;2023-05-16T09:34:53;7.32;;;6.68;;
12052;SDS011;6087;48.982;12.064;2023-05-16T09:37:22;8.23;;;7.35;;
12052;SDS011;6087;48.982;12.064;2023-05-16T09:39:50;8.80;;;6.25;;
12052;SDS011;6087;48.982;12.064;2023-05-16T09:42:20;7.22;;;6.53;;
12052;SDS011;6087;48.982;12.064;2023-05-16T09:44:48;8.57;;;7.28;;
12052;SDS011;6087;48.982;12.064;2023-05-16T09:47:16;8.05;;;7.25;;
12052;SDS011;6087;48.982;12.064;2023-05-16T09:49:44;7.28;;;6.57;;
12052;SDS011;6087;48.982;12.064;2023-05-16T09:52:12;10.70;;;7.00;;
12052;SDS011;6087;48.982;12.064;2023-05-16T09:54:40;8.70;;;7.07;;
12052;SDS011;6087;48.982;12.064;2023-05-16T09:57:07;6.78;;;6.25;;
12052;SDS011;6087;48.982;12.064;2023-05-16T09:59:36;8.02;;;6.20;;
12052;SDS011;6087;48.982;12.064;2023-05-16T10:02:04;7.28;;;6.57;;
12052;SDS011;6087;48.982;12.064;2023-05-16T10:04:32;7.40;;;6.80;;
12052;SDS011;6087;48.982;12.064;2023-05-16T10:07:00;7.45;;;6.75;;
12052;SDS011;6087;48.982;12.064;2023-05-16T10:09:30;7.13;;;6.38;;
12052;SDS011;6087;48.982;12.064;2023-05-16T10:11:58;7.38;;;6.68;;
12052;SDS011;6087;48.982;12.064;2023-05-16T10:14:28;7.13;;;6.43;;
12052;SDS011;6087;48.982;12.064;2023-05-16T10:17:00;6.93;;;6.22;;
12052;SDS011;6087;48.982;12.064;2023-05-16T10:19:29;7.95;;;7.15;;
12052;SDS011;6087;48.982;12.064;2023-05-16T10:21:59;6.95;;;6.13;;
12052;SDS011;6087;48.982;12.064;2023-05-16T10:24:30;7.60;;;6.35;;
12052;SDS011;6087;48.982;12.064;2023-05-16T10:27:04;6.63;;;5.75;;
12052;SDS011;6087;48.982;12.064;2023-05-16T10:29:31;7.80;;;6.00;;
12052;SDS011;6087;48.982;12.064;2023-05-16T10:31:59;8.15;;;7.35;;
12052;SDS011;6087;48.982;12.064;2023-05-16T10:34:28;7.32;;;6.60;;
12052;SDS011;6087;48.982;12.064;2023-05-16T10:36:55;8.25;;;6.70;;
12052;SDS011;6087;48.982;12.064;2023-05-16T10:39:23;7.80;;;6.82;;
12052;SDS011;6087;48.982;12.064;2023-05-16T10:41:50;8.85;;;7.93;;
12052;SDS011;6087;48.982;12.064;2023-05-16T10:44:18;10.18;;;7.30;;
12052;SDS011;6087;48.982;12.064;2023-05-16T10:46:45;9.35;;;8.35;;
12052;SDS011;6087;48.982;12.064;2023-05-16T10:49:19;9.93;;;8.70;;
12052;SDS011;6087;48.982;12.064;2023-05-16T10:54:34;10.43;;;9.38;;
12052;SDS011;6087;48.982;12.064;2023-05-16T10:57:05;9.98;;;8.98;;
12052;SDS011;6087;48.982;12.064;2023-05-16T10:59:43;9.93;;;9.00;;
12052;SDS011;6087;48.982;12.064;2023-05-16T11:02:21;9.95;;;9.05;;
12052;SDS011;6087;48.982;12.064;2023-05-16T11:04:55;11.55;;;10.35;;
12052;SDS011;6087;48.982;12.064;2023-05-16T11:07:24;11.15;;;9.98;;
12052;SDS011;6087;48.982;12.064;2023-05-16T11:09:52;12.40;;;10.75;;
12052;SDS011;6087;48.982;12.064;2023-05-16T11:12:35;12.65;;;9.48;;
12052;SDS011;6087;48.982;12.064;2023-05-16T11:15:16;10.10;;;8.65;;
12052;SDS011;6087;48.982;12.064;2023-05-16T11:17:47;11.02;;;8.25;;
12052;SDS011;6087;48.982;12.064;2023-05-16T11:20:29;7.15;;;6.50;;
12052;SDS011;6087;48.982;12.064;2023-05-16T11:25:53;4.72;;;4.40;;
12052;SDS011;6087;48.982;12.064;2023-05-16T11:28:22;6.38;;;5.70;;
12052;SDS011;6087;48.982;12.064;2023-05-16T11:30:51;8.40;;;6.47;;
12052;SDS011;6087;48.982;12.064;2023-05-16T11:33:20;7.45;;;6.70;;
12052;SDS011;6087;48.982;12.064;2023-05-16T11:36:02;7.63;;;6.63;;
12052;SDS011;6087;48.982;12.064;2023-05-16T11:38:29;10.52;;;6.88;;
12052;SDS011;6087;48.982;12.064;2023-05-16T11:41:03;6.28;;;5.68;;
12052;SDS011;6087;48.982;12.064;2023-05-16T11:43:38;5.65;;;5.13;;
12052;SDS011;6087;48.982;12.064;2023-05-16T11:46:05;6.18;;;5.53;;
12052;SDS011;6087;48.982;12.064;2023-05-16T11:48:36;8.02;;;5.25;;
12052;SDS011;6087;48.982;12.064;2023-05-16T11:51:04;7.90;;;5.38;;
12052;SDS011;6087;48.982;12.064;2023-05-16T11:53:31;5.70;;;5.20;;
12052;SDS011;6087;48.982;12.064;2023-05-16T11:55:59;7.20;;;5.47;;
12052;SDS011;6087;48.982;12.064;2023-05-16T11:58:27;5.35;;;4.85;;
12052;SDS011;6087;48.982;12.064;2023-05-16T12:00:54;6.20;;;5.65;;
12052;SDS011;6087;48.982;12.064;2023-05-16T12:03:21;6.68;;;6.13;;
12052;SDS011;6087;48.982;12.064;2023-05-16T12:05:49;6.85;;;6.18;;
12052;SDS011;6087;48.982;12.064;2023-05-16T12:08:26;8.18;;;7.38;;
12052;SDS011;6087;48.982;12.064;2023-05-16T12:10:53;8.55;;;7.75;;
12052;SDS011;6087;48.982;12.064;2023-05-16T12:13:21;14.10;;;10.27;;
12052;SDS011;6087;48.982;12.064;2023-05-16T12:15:49;12.88;;;11.60;;
12052;SDS011;6087;48.982;12.064;2023-05-16T12:18:17;14.02;;;11.15;;
12052;SDS011;6087;48.982;12.064;2023-05-16T12:20:45;11.38;;;10.25;;
12052;SDS011;6087;48.982;12.064;2023-05-16T12:23:12;12.43;;;8.88;;
12052;SDS011;6087;48.982;12.064;2023-05-16T12:25:43;9.15;;;7.78;;
12052;SDS011;6087;48.982;12.064;2023-05-16T12:28:12;9.98;;;7.90;;
12052;SDS011;6087;48.982;12.064;2023-05-16T12:30:39;8.63;;;7.80;;
12052;SDS011;6087;48.982;12.064;2023-05-16T12:33:08;9.30;;;8.38;;
12052;SDS011;6087;48.982;12.064;2023-05-16T12:35:37;12.73;;;10.38;;
12052;SDS011;6087;48.982;12.064;2023-05-16T12:38:05;12.20;;;11.00;;
12052;SDS011;6087;48.982;12.064;2023-05-16T12:40:33;10.13;;;9.18;;
12052;SDS011;6087;48.982;12.064;2023-05-16T12:43:03;11.82;;;8.40;;
12052;SDS011;6087;48.982;12.064;2023-05-16T12:45:31;8.20;;;7.28;;
12052;SDS011;6087;48.982;12.064;2023-05-16T12:48:03;9.50;;;7.45;;
12052;SDS011;6087;48.982;12.064;2023-05-16T12:50:31;9.23;;;7.43;;
12052;SDS011;6087;48.982;12.064;2023-05-16T12:52:59;8.60;;;7.13;;
12052;SDS011;6087;48.982;12.064;2023-05-16T12:55:26;7.63;;;7.03;;
12052;SDS011;6087;48.982;12.064;2023-05-16T12:57:54;8.30;;;7.55;;
12052;SDS011;6087;48.982;12.064;2023-05-16T13:00:23;8.20;;;7.43;;
12052;SDS011;6087;48.982;12.064;2023-05-16T13:02:50;8.02;;;7.25;;
12052;SDS011;6087;48.982;12.064;2023-05-16T13:05:17;8.20;;;6.93;;
12052;SDS011;6087;48.982;12.064;2023-05-16T13:07:46;7.88;;;6.75;;
12052;SDS011;6087;48.982;12.064;2023-05-16T13:10:12;7.50;;;6.32;;
12052;SDS011;6087;48.982;12.064;2023-05-16T13:12:39;8.07;;;6.55;;
12052;SDS011;6087;48.982;12.064;2023-05-16T13:15:07;11.05;;;8.80;;
12052;SDS011;6087;48.982;12.064;2023-05-16T13:17:37;9.52;;;8.55;;
12052;SDS011;6087;48.982;12.064;2023-05-16T13:20:05;8.63;;;7.25;;
12052;SDS011;6087;48.982;12.064;2023-05-16T13:22:34;10.15;;;8.52;;
12052;SDS011;6087;48.982;12.064;2023-05-16T13:25:01;10.90;;;8.68;;
12052;SDS011;6087;48.982;12.064;2023-05-16T13:27:28;9.90;;;8.93;;
12052;SDS011;6087;48.982;12.064;2023-05-16T13:29:55;10.43;;;8.98;;
12052;SDS011;6087;48.982;12.064;2023-05-16T13:32:23;9.52;;;8.55;;
12052;SDS011;6087;48.982;12.064;2023-05-16T13:34:51;11.32;;;8.77;;
12052;SDS011;6087;48.982;12.064;2023-05-16T13:37:25;11.07;;;9.40;;
12052;SDS011;6087;48.982;12.064;2023-05-16T13:39:52;9.93;;;8.48;;
12052;SDS011;6087;48.982;12.064;2023-05-16T13:42:20;10.18;;;8.95;;
12052;SDS011;6087;48.982;12.064;2023-05-16T13:44:47;12.27;;;9.68;;
12052;SDS011;6087;48.982;12.064;2023-05-16T13:47:13;9.93;;;8.88;;
12052;SDS011;6087;48.982;12.064;2023-05-16T13:49:40;10.38;;;9.25;;
12052;SDS011;6087;48.982;12.064;2023-05-16T13:52:09;9.85;;;8.95;;
12052;SDS011;6087;48.982;12.064;2023-05-16T13:54:36;11.02;;;9.93;;
12052;SDS011;6087;48.982;12.064;2023-05-16T13:57:04;11.15;;;10.00;;
12052;SDS011;6087;48.982;12.064;2023-05-16T13:59:34;10.93;;;9.25;;
12052;SDS011;6087;48.982;12.064;2023-05-16T14:02:01;11.90;;;9.50;;
12052;SDS011;6087;48.982;12.064;2023-05-16T14:04:31;9.98;;;8.95;;
12052;SDS011;6087;48.982;12.064;2023-05-16T14:07:00;14.00;;;11.45;;
12052;SDS011;6087;48.982;12.064;2023-05-16T14:09:31;13.52;;;12.13;;
12052;SDS011;6087;48.982;12.064;2023-05-16T14:11:59;13.48;;;12.18;;
12052;SDS011;6087;48.982;12.064;2023-05-16T14:14:31;11.18;;;10.07;;
12052;SDS011;6087;48.982;12.064;2023-05-16T14:16:58;12.10;;;10.93;;
12052;SDS011;6087;48.982;12.064;2023-05-16T14:19:28;11.40;;;10.27;;
12052;SDS011;6087;48.982;12.064;2023-05-16T14:21:55;11.50;;;9.68;;
12052;SDS011;6087;48.982;12.064;2023-05-16T14:24:22;10.40;;;9.40;;
12052;SDS011;6087;48.982;12.064;2023-05-16T14:26:50;11.43;;;10.38;;
12052;SDS011;6087;48.982;12.064;2023-05-16T14:29:19;10.55;;;9.55;;
12052;SDS011;6087;48.982;12.064;2023-05-16T14:31:46;10.70;;;9.63;;
12052;SDS011;6087;48.982;12.064;2023-05-16T14:34:12;12.80;;;9.75;;
12052;SDS011;6087;48.982;12.064;2023-05-16T14:36:39;9.85;;;8.85;;
12052;SDS011;6087;48.982;12.064;2023-05-16T14:39:07;10.68;;;9.43;;
12052;SDS011;6087;48.982;12.064;2023-05-16T14:41:34;10.88;;;9.98;;
12052;SDS011;6087;48.982;12.064;2023-05-16T14:44:02;10.68;;;8.75;;
12052;SDS011;6087;48.982;12.064;2023-05-16T14:46:29;11.32;;;10.25;;
12052;SDS011;6087;48.982;12.064;2023-05-16T14:48:57;10.55;;;9.50;;
12052;SDS011;6087;48.982;12.064;2023-05-16T14:51:24;10.35;;;8.68;;
12052;SDS011;6087;48.982;12.064;2023-05-16T14:53:51;9.85;;;8.07;;
12052;SDS011;6087;48.982;12.064;2023-05-16T14:56:18;8.25;;;7.45;;
12052;SDS011;6087;48.982;12.064;2023-05-16T14:58:45;7.03;;;6.32;;